Terminal Aerodrome Forecast
Issued by NWS Albuquerque, NM

Home | Current Version | Previous Version | Text Only | Print | Product List | Glossary On
Versions: 1 2 3 4 5 6 7 8 9 10 11 12 13 14
000
FTUS45 KABQ 231741
TAFABQ
TAF
KABQ 231741Z 2318/2418 02007KT P6SM SCT150
     FM232100 07012KT P6SM SCT150
     FM232300 07020G30KT P6SM FEW060
     FM240100 09030G40KT P6SM SCT050
     FM241000 09020G28KT P6SM BKN050
     FM241500 10015G23KT P6SM SCT050=

USA.gov is the U.S. government's official web portal to all federal, state and local government web resources and services.